logo
Search for airport 
image banner adimage banner adimage banner ad
image banner ad

FADS - De Doorns

Located in De Doorns, South Africa

ICAO - FADS, IATA -

Data provided by Airmate  

General information

Coordinates: S33°27'20" E19°41'9"
Elevation is 1627 feet MSL.
 
View others Airports in Western Cape

Operational data

Special qualification required
Current time UTC:
Current local time:
Weather at : - ( 0 km )
METAR: ZMCK 200430Z VRB02MPS 9999 FEW030CB SCT033 21/12 Q1003 NOSIG RMK QFE638.7 57 MOP
View NOTAMs / SUP AIP / TFR affecting this airport [VIEW]
Communications frequencies: [VIEW]

Runways:

RWY identifierQFULength (ft)Width (ft)SurfaceLDA (ft)
08177°328166SAND
26357°328166SAND

Airport contact information

Address: De Doorns South Africa

Satellite view of FADS